createdAt,value
2018-11-04T19:14:15.882Z,17.77
2018-11-04T19:16:44.602Z,19.97
2018-11-04T19:19:12.784Z,21.63
2018-11-04T19:21:40.979Z,20.50
2018-11-04T19:24:09.159Z,21.77
2018-11-04T19:26:37.301Z,21.60
2018-11-04T19:29:05.475Z,22.50
2018-11-04T19:31:33.642Z,23.97
2018-11-04T19:34:01.777Z,24.23
2018-11-04T19:36:29.918Z,20.37
2018-11-04T19:38:58.083Z,20.90
2018-11-04T19:41:26.243Z,21.77
2018-11-04T19:43:54.447Z,21.33
2018-11-04T19:46:22.587Z,21.27
2018-11-04T19:48:50.892Z,20.70
2018-11-04T19:51:18.964Z,24.70
2018-11-04T19:53:47.187Z,22.77
2018-11-04T19:56:15.351Z,22.50
2018-11-04T19:58:43.489Z,23.17
2018-11-04T20:01:11.618Z,24.13
2018-11-04T20:03:39.975Z,22.50
2018-11-04T20:06:08.179Z,23.93
2018-11-04T20:08:36.263Z,22.33
2018-11-04T20:11:04.406Z,22.30
2018-11-04T20:13:37.875Z,20.70
2018-11-04T20:16:05.990Z,20.70
2018-11-04T20:18:39.403Z,21.10
2018-11-04T20:21:07.544Z,19.73
2018-11-04T20:23:35.671Z,21.80
2018-11-04T20:26:05.982Z,22.53
2018-11-04T20:28:34.106Z,24.03
2018-11-04T20:31:02.273Z,24.57
2018-11-04T20:33:30.415Z,27.63
2018-11-04T20:35:58.579Z,23.87
2018-11-04T20:38:32.023Z,23.30
2018-11-04T20:41:05.719Z,22.90
2018-11-04T20:43:33.861Z,36.40
2018-11-04T20:46:02.026Z,24.90
2018-11-04T20:48:36.954Z,24.60
2018-11-04T20:51:06.567Z,25.53
2018-11-04T20:53:35.138Z,24.37
2018-11-04T20:56:08.638Z,24.60
2018-11-04T20:58:36.811Z,24.40
2018-11-04T21:01:05.063Z,24.80
2018-11-04T21:03:33.297Z,24.57
2018-11-04T21:06:01.468Z,24.20
2018-11-04T21:08:30.996Z,26.80
2018-11-04T21:10:59.102Z,25.70
2018-11-04T21:13:27.774Z,26.30
2018-11-04T21:15:56.167Z,24.63
2018-11-04T21:18:24.266Z,24.83
2018-11-04T21:20:54.035Z,24.43
2018-11-04T21:23:22.727Z,25.30
2018-11-04T21:25:51.005Z,25.60
2018-11-04T21:28:19.219Z,23.93
2018-11-04T21:30:47.238Z,23.47
2018-11-04T21:33:15.456Z,23.17
2018-11-04T21:35:43.637Z,23.57
2018-11-04T21:38:11.805Z,24.07
2018-11-04T21:40:39.958Z,25.03
2018-11-04T21:43:08.376Z,25.17
2018-11-04T21:45:36.370Z,22.07
2018-11-04T21:48:04.522Z,23.13
2018-11-04T21:50:32.695Z,23.13
2018-11-04T21:53:00.851Z,24.07
2018-11-04T21:55:29.113Z,25.57
2018-11-04T21:57:57.151Z,25.87
2018-11-04T22:00:25.303Z,24.30
2018-11-04T22:02:53.640Z,26.30
2018-11-04T22:05:21.582Z,26.47
2018-11-04T22:07:49.742Z,33.87
2018-11-04T22:10:17.881Z,29.27
2018-11-04T22:12:46.131Z,28.07
2018-11-04T22:15:14.282Z,25.67
2018-11-04T22:17:42.776Z,26.33
2018-11-04T22:20:12.172Z,27.63
2018-11-04T22:22:40.385Z,28.33
2018-11-04T22:25:09.303Z,26.80
2018-11-04T22:27:37.449Z,27.03
2018-11-04T22:30:06.762Z,27.47
2018-11-04T22:32:35.009Z,27.63
2018-11-04T22:35:03.157Z,27.93
2018-11-04T22:37:31.311Z,26.90
2018-11-04T22:39:59.462Z,25.90
2018-11-04T22:42:27.682Z,24.00
2018-11-04T22:44:55.749Z,24.90
2018-11-04T22:47:23.898Z,23.43
2018-11-04T22:49:52.214Z,24.27
2018-11-04T22:52:20.397Z,23.33
2018-11-04T22:54:48.542Z,25.07
2018-11-04T22:57:16.701Z,24.63
2018-11-04T22:59:44.850Z,23.83
2018-11-04T23:02:12.995Z,24.17
2018-11-04T23:04:46.606Z,24.37
2018-11-04T23:07:14.762Z,27.20
2018-11-04T23:09:42.921Z,25.03
2018-11-04T23:12:11.087Z,26.80
2018-11-04T23:14:39.222Z,29.30
2018-11-04T23:17:07.382Z,29.10
2018-11-04T23:19:35.526Z,29.57
2018-11-04T23:22:03.674Z,31.67
2018-11-04T23:24:31.809Z,29.00
2018-11-04T23:27:00.094Z,31.23
2018-11-04T23:29:28.159Z,28.77
2018-11-04T23:31:56.323Z,28.70
2018-11-04T23:34:24.458Z,27.87
2018-11-04T23:36:52.594Z,26.60
2018-11-04T23:39:20.751Z,26.20
2018-11-04T23:41:48.896Z,26.47
2018-11-04T23:44:17.039Z,27.87
2018-11-04T23:46:45.186Z,28.10
2018-11-04T23:49:13.311Z,27.80
2018-11-04T23:51:41.487Z,28.60
2018-11-04T23:54:09.927Z,28.60
2018-11-04T23:56:38.075Z,28.93
2018-11-04T23:59:06.210Z,28.60
